Latest Weather Observations for Low Head

IDT60801

Issued at 11:02 am EDT Monday 2 February 2015 (issued every 30 minutes, with the page automatically refreshed every 10 minutes)

About weather observations | Map of weather stations | Latest weather observations for TAS | Other Formats
Station Details ID: 091293 Name: LOW HEAD Lat: -41.05 Lon: 146.79 Height: 3.0 m
Data from the previous 72 hours. | See also: Recent months at Low Head
Date/Time
EDT
Temp
°C
App
Temp
°C
Dew
Point
Rel
Hum
%
Delta-T
°C
Wind Press
QNH
hPa
Press
MSL
hPa
Rain
since 9 am
mm
Dir
 
Spd
km/h
Gust
km/h
Spd
kts
Gust
kts
02/11:00am 18.1 16.3 8.1 52 5.1 NNW 7 9 4 5 1019.7 1019.7 0.0
02/10:30am 17.2 14.7 8.4 56 4.5 S 11 13 6 7 1019.4 1019.4 0.0
02/10:00am 16.3 12.8 7.3 55 4.5 SSE 15 20 8 11 1019.4 1019.4 0.0
02/09:30am 16.0 10.9 7.5 57 4.2 S 24 28 13 15 1019.4 1019.4 0.0
02/09:00am 15.6 11.1 6.9 56 4.3 SSE 20 26 11 14 1019.1 1019.1 0.0
02/08:30am 14.5 8.1 6.8 60 3.7 SSE 30 35 16 19 1018.8 1018.8 0.0
02/08:00am 14.4 8.4 7.2 62 3.5 SSE 28 35 15 19 1018.4 1018.4 0.0
02/07:30am 14.2 8.3 7.3 63 3.4 S 28 33 15 18 1017.8 1017.8 0.0
02/07:00am 14.0 8.8 7.1 63 3.4 SSE 24 32 13 17 1017.5 1017.5 0.0
02/06:30am 13.7 7.6 6.8 63 3.3 SSE 28 33 15 18 1017.3 1017.3 0.0
02/05:30am 13.5 7.3 7.7 68 2.9 S 30 35 16 19 1016.8 1016.8 0.0
02/05:00am 13.5 7.2 7.3 66 3.0 SSE 30 35 16 19 1016.5 1016.5 0.0
02/04:30am 13.7 8.3 7.9 68 2.9 S 26 37 14 20 1016.5 1016.5 0.0
02/04:00am 13.5 8.0 7.5 67 2.9 SSE 26 35 14 19 1016.3 1016.3 0.0
02/03:30am 14.2 7.6 7.9 66 3.1 S 32 37 17 20 1016.5 1016.5 0.0
02/03:00am 14.4 8.3 8.4 67 3.0 S 30 35 16 19 1016.6 1016.6 0.0
02/02:30am 14.3 9.0 8.3 67 3.0 SSE 26 35 14 19 1016.6 1016.6 0.0
02/02:00am 14.6 8.2 8.5 67 3.1 SSE 32 37 17 20 1016.7 1016.7 0.0
02/01:30am 14.6 8.9 8.5 67 3.1 SSE 28 39 15 21 1016.6 1016.6 0.0
02/01:00am 14.6 10.2 9.0 69 2.8 SSE 22 32 12 17 1016.6 1016.6 0.0
02/12:30am 14.9 9.3 8.8 67 3.1 SSE 28 35 15 19 1016.5 1016.5 0.0
02/12:00am 15.3 10.1 9.0 66 3.2 SSE 26 35 14 19 1016.5 1016.5 0.0
 
Date/Time
EDT
Temp
°C
App
Temp
°C
Dew
Point
Rel
Hum
%
Delta-T
°C
Wind Press
QNH
hPa
Press
MSL
hPa
Rain
since 9 am
mm
Dir
 
Spd
km/h
Gust
km/h
Spd
kts
Gust
kts
01/11:30pm 15.8 11.0 9.0 64 3.5 SSE 24 32 13 17 1016.3 1016.3 0.0
01/11:00pm 16.2 12.7 8.9 62 3.7 SE 17 24 9 13 1016.2 1016.2 0.0
01/10:30pm 15.8 13.3 11.0 73 2.6 SE 15 28 8 15 1016.0 1016.0 0.0
01/10:00pm 16.6 15.9 13.1 80 2.0 ENE 9 9 5 5 1015.6 1015.6 0.0
01/09:30pm 17.5 17.1 14.2 81 1.9 NNE 9 11 5 6 1015.2 1015.2 0.0
01/09:00pm 17.7 17.3 14.2 80 2.0 N 9 11 5 6 1014.7 1014.7 0.0
01/08:30pm 17.9 17.1 14.0 78 2.2 N 11 13 6 7 1014.4 1014.4 0.0
01/08:00pm 18.2 17.0 14.1 77 2.3 NNW 13 15 7 8 1014.0 1014.0 0.0
01/07:30pm 18.8 16.2 13.9 73 2.8 W 20 24 11 13 1013.4 1013.4 0.0
01/07:00pm 19.4 16.4 13.6 69 3.3 WNW 22 24 12 13 1013.2 1013.2 0.0
01/06:30pm 19.8 17.0 13.3 66 3.7 WNW 20 24 11 13 1012.8 1012.8 0.0
01/06:00pm 19.9 16.5 12.4 62 4.2 WNW 22 26 12 14 1012.5 1012.5 0.0
01/05:30pm 19.6 15.5 12.6 64 3.9 WNW 26 30 14 16 1012.5 1012.5 0.0
01/05:00pm 20.0 15.2 13.0 64 4.0 WNW 30 32 16 17 1012.0 1012.0 0.0
01/04:30pm 20.2 15.3 12.7 62 4.2 WNW 30 35 16 19 1011.9 1011.9 0.0
01/04:00pm 20.8 16.9 13.3 62 4.3 WNW 26 32 14 17 1011.9 1011.9 0.0
01/03:30pm 20.7 16.7 12.9 61 4.4 W 26 32 14 17 1011.8 1011.8 0.0
01/03:00pm 21.2 18.1 12.1 56 5.1 WSW 20 24 11 13 1011.6 1011.6 0.0
01/02:30pm 23.2 19.2 9.2 41 7.5 SSE 20 30 11 16 1011.6 1011.6 0.0
01/02:00pm 22.6 17.8 8.7 41 7.4 SSE 24 32 13 17 1011.6 1011.6 0.0
01/01:30pm 22.2 17.4 9.0 43 7.0 SSE 24 32 13 17 1011.6 1011.6 0.0
01/01:00pm 21.4 16.6 8.7 44 6.7 SE 24 35 13 19 1012.0 1012.0 0.0
01/12:30pm 20.7 15.5 8.7 46 6.3 SSE 26 35 14 19 1012.2 1012.2 0.0
01/12:00pm 20.8 15.9 8.4 45 6.5 SE 24 35 13 19 1012.6 1012.6 0.0
01/11:30am 20.4 15.6 8.7 47 6.1 SE 24 35 13 19 1012.7 1012.7 0.0
01/11:00am 19.2 14.5 7.6 47 5.9 SE 22 33 12 18 1012.6 1012.6 0.0
01/10:30am 18.7 13.9 8.7 52 5.2 SSE 24 33 13 18 1012.5 1012.5 0.0
01/10:00am 18.0 12.1 7.7 51 5.2 SSE 28 39 15 21 1012.6 1012.6 0.0
01/09:30am 17.3 10.8 8.2 55 4.6 SSE 32 41 17 22 1012.4 1012.4 0.0
01/09:00am 16.7 10.3 8.4 58 4.2 SSE 32 44 17 24 1012.2 1012.2 0.0
01/08:30am 15.9 9.5 8.6 62 3.7 SSE 32 43 17 23 1011.6 1011.6 0.0
01/08:00am 15.4 9.2 9.5 68 3.1 SSE 32 39 17 21 1011.3 1011.3 0.0
01/07:30am 14.7 9.1 10.1 74 2.4 S 30 35 16 19 1010.8 1010.8 0.0
01/07:00am 14.2 8.6 10.0 76 2.2 S 30 35 16 19 1010.4 1010.4 0.0
01/06:30am 14.0 8.0 10.0 77 2.1 S 32 37 17 20 1010.0 1010.0 0.0
01/06:00am 14.4 8.9 10.4 77 2.1 S 30 39 16 21 1009.7 1009.7 0.0
01/05:30am 14.5 9.2 9.7 73 2.5 SSE 28 37 15 20 1009.6 1009.6 0.0
01/05:00am 14.6 9.4 10.2 75 2.3 S 28 35 15 19 1009.6 1009.6 0.0
01/04:30am 14.7 9.6 10.7 77 2.1 S 28 33 15 18 1009.7 1009.7 0.0
01/04:00am 14.4 9.2 10.2 76 2.2 SSE 28 33 15 18 1009.7 1009.7 0.0
01/03:30am 14.3 9.8 10.1 76 2.2 SSE 24 30 13 16 1010.0 1010.0 0.0
01/03:00am 14.1 9.7 10.3 78 2.0 SSE 24 30 13 16 1010.0 1010.0 0.0
01/02:30am 14.2 10.1 10.2 77 2.1 SSE 22 28 12 15 1010.1 1010.1 0.0
01/02:00am 14.5 10.4 10.1 75 2.3 SSE 22 28 12 15 1010.3 1010.3 0.0
01/01:30am 14.7 10.5 9.9 73 2.5 SSE 22 33 12 18 1010.5 1010.5 0.0
01/01:00am 14.7 10.9 9.7 72 2.6 SSE 20 30 11 16 1010.4 1010.4 0.0
01/12:30am 15.1 9.8 9.9 71 2.7 SSE 28 33 15 18 1010.4 1010.4 0.0
01/12:00am 15.7 10.7 10.9 73 2.6 S 28 32 15 17 1010.6 1010.6 0.0
 
Date/Time
EDT
Temp
°C
App
Temp
°C
Dew
Point
Rel
Hum
%
Delta-T
°C
Wind Press
QNH
hPa
Press
MSL
hPa
Rain
since 9 am
mm
Dir
 
Spd
km/h
Gust
km/h
Spd
kts
Gust
kts
31/11:30pm 15.8 10.8 10.8 72 2.7 S 28 35 15 19 1010.4 1010.4 0.0
31/11:00pm 16.0 11.1 11.2 73 2.6 SSE 28 35 15 19 1010.6 1010.6 0.0
31/10:30pm 16.4 12.0 11.6 73 2.6 SSE 26 35 14 19 1010.7 1010.7 0.0
31/10:00pm 16.6 12.3 10.9 69 3.1 SSE 24 33 13 18 1010.6 1010.6 0.0
31/09:30pm 17.0 13.6 11.1 68 3.2 SSE 20 28 11 15 1010.3 1010.3 0.0
31/09:00pm 18.0 15.6 11.3 65 3.6 SSE 15 22 8 12 1010.0 1010.0 0.0
31/08:30pm 18.6 15.6 10.7 60 4.3 SE 17 22 9 12 1009.7 1009.7 0.0
31/08:00pm 19.4 16.9 10.9 58 4.6 SE 15 20 8 11 1009.4 1009.4 0.0
31/07:30pm 19.3 19.1 13.7 70 3.2 W 7 9 4 5 1009.0 1009.0 0.0
31/07:00pm 19.0 18.4 14.5 75 2.6 W 11 13 6 7 1009.0 1009.0 0.0
31/06:30pm 19.0 17.7 14.7 76 2.5 W 15 19 8 10 1008.7 1008.7 0.0
31/06:00pm 19.1 16.7 13.7 71 3.1 WNW 19 24 10 13 1008.6 1008.6 0.0
31/05:30pm 20.0 17.5 14.1 69 3.4 WNW 20 26 11 14 1008.5 1008.5 0.0
31/05:00pm 19.6 18.0 12.8 65 3.8 WNW 13 24 7 13 1008.5 1008.5 0.0
31/04:30pm 20.0 17.5 14.1 69 3.4 WNW 20 32 11 17 1008.4 1008.4 0.0
31/04:00pm 19.4 16.8 13.8 70 3.2 W 20 24 11 13 1008.4 1008.4 0.0
31/03:30pm 19.3 16.8 14.1 72 3.0 W 20 24 11 13 1008.4 1008.4 0.0
31/03:00pm 20.0 16.7 13.9 68 3.5 WNW 24 28 13 15 1008.3 1008.3 0.0
31/02:30pm 20.2 17.5 13.6 66 3.8 WNW 20 30 11 16 1008.4 1008.4 0.0
31/02:00pm 20.2 18.1 12.4 61 4.4 WSW 15 20 8 11 1008.4 1008.4 0.0
31/01:30pm 22.6 18.8 11.0 48 6.4 S 22 32 12 17 1008.4 1008.4 0.0
31/01:00pm 21.1 17.2 10.9 52 5.6 S 22 30 12 16 1008.6 1008.6 0.0
31/12:30pm 19.3 17.6 11.1 59 4.5 S 11 17 6 9 1008.7 1008.7 0.0
31/12:00pm 18.7 18.5 10.5 59 4.4 SW 2 7 1 4 1009.1 1009.1 0.0
31/11:30am 18.1 16.2 10.5 61 4.1 WNW 11 13 6 7 1009.3 1009.3 0.0
31/11:00am 17.7 16.2 10.6 63 3.8 WNW 9 9 5 5 1009.3 1009.3 0.0
31/10:30am 16.8 15.5 10.0 64 3.6 WSW 7 9 4 5 1009.4 1009.4 0.0
31/10:00am 16.5 13.7 9.9 65 3.5 SSW 15 20 8 11 1009.7 1009.7 0.0
31/09:30am 16.3 13.1 9.9 66 3.4 SW 17 22 9 12 1009.8 1009.8 0.0
31/09:00am 15.5 12.5 9.2 66 3.2 SSW 15 19 8 10 1009.7 1009.7 1.0
31/08:30am 15.4 13.2 9.5 68 3.0 SSW 11 13 6 7 1009.7 1009.7 1.0
31/08:00am 14.8 12.2 9.4 70 2.8 SSE 13 17 7 9 1009.6 1009.6 1.0
31/07:30am 14.9 11.3 9.9 72 2.6 SSW 19 22 10 12 1009.3 1009.3 1.0
31/07:00am 14.8 11.2 9.8 72 2.6 S 19 20 10 11 1009.2 1009.2 1.0
31/06:30am 14.4 11.3 9.0 70 2.7 SSE 15 17 8 9 1009.3 1009.3 1.0
31/06:00am 14.8 11.0 9.0 68 3.0 SSE 19 26 10 14 1009.2 1009.2 1.0
31/05:30am 15.0 10.4 9.6 70 2.8 SSW 24 33 13 18 1009.2 1009.2 1.0
31/05:00am 15.0 10.0 9.4 69 2.9 SSW 26 35 14 19 1009.2 1009.2 1.0
31/04:30am 14.6 9.9 9.2 70 2.8 SSW 24 30 13 16 1009.1 1009.1 1.0
31/04:00am 14.5 9.8 9.3 71 2.7 SSW 24 28 13 15 1009.3 1009.3 1.0
31/03:30am 14.4 9.7 9.4 72 2.6 SSW 24 30 13 16 1009.4 1009.4 1.0
31/03:00am 14.1 9.3 8.7 70 2.7 SW 24 30 13 16 1009.9 1009.9 0.8
31/02:30am 14.0 9.2 9.0 72 2.5 SW 24 30 13 16 1010.1 1010.1 0.6
31/02:00am 14.0 10.3 9.4 74 2.4 SW 19 22 10 12 1010.4 1010.4 0.4
31/01:30am 14.3 10.0 9.5 73 2.5 SSW 22 24 12 13 1010.7 1010.7 0.2
31/01:00am 14.7 10.6 8.6 67 3.1 SSW 20 26 11 14 1011.0 1011.0 0.2
31/12:30am 14.9 10.6 7.7 62 3.6 SSW 20 30 11 16 1011.1 1011.1 0.2
31/12:00am 15.1 10.9 8.3 64 3.4 S 20 28 11 15 1011.4 1011.4 0.2
 
Date/Time
EDT
Temp
°C
App
Temp
°C
Dew
Point
Rel
Hum
%
Delta-T
°C
Wind Press
QNH
hPa
Press
MSL
hPa
Rain
since 9 am
mm
Dir
 
Spd
km/h
Gust
km/h
Spd
kts
Gust
kts
30/11:30pm 14.9 9.9 8.2 64 3.4 SSE 24 32 13 17 1011.6 1011.6 0.2
30/11:00pm 14.9 9.2 8.4 65 3.3 S 28 35 15 19 1011.7 1011.7 0.0
30/10:30pm 15.0 9.2 9.4 69 2.9 S 30 35 16 19 1011.8 1011.8 0.0
30/10:00pm 15.2 10.5 9.3 68 3.0 S 24 32 13 17 1011.9 1011.9 0.0
30/09:30pm 15.6 10.7 8.6 63 3.6 SSE 24 32 13 17 1012.0 1012.0 0.0
30/09:00pm 16.0 11.7 7.7 58 4.2 SE 20 32 11 17 1011.8 1011.8 0.0
30/08:30pm 17.0 12.4 8.2 56 4.5 S 22 28 12 15 1011.6 1011.6 0.0
30/08:00pm 17.3 10.2 7.9 54 4.8 S 35 41 19 22 1011.6 1011.6 0.0
30/07:30pm 17.4 11.9 7.7 53 4.9 SSE 26 35 14 19 1011.8 1011.8 0.0
30/07:00pm 17.8 12.7 7.8 52 5.1 SSE 24 33 13 18 1011.7 1011.7 0.0
30/06:30pm 18.3 12.8 7.4 49 5.5 S 26 39 14 21 1011.9 1011.9 0.0
30/06:00pm 17.9 15.9 8.7 55 4.8 SW 9 20 5 11 1012.2 1012.2 0.0
30/05:30pm 17.9 13.2 9.3 57 4.5 SSW 24 32 13 17 1012.4 1012.4 0.0
30/05:00pm 18.9 15.0 8.6 51 5.3 SSE 19 28 10 15 1012.3 1012.3 0.0
30/04:30pm 19.2 15.4 9.1 52 5.3 S 19 22 10 12 1012.7 1012.7 0.0
30/04:00pm 19.6 15.2 8.9 50 5.6 S 22 28 12 15 1012.7 1012.7 0.0
30/03:30pm 18.7 12.9 8.1 50 5.4 S 28 33 15 18 1013.0 1013.0 0.0
30/03:00pm 18.1 12.0 8.4 53 5.0 S 30 39 16 21 1013.3 1013.3 0.0
30/02:30pm 18.0 11.9 8.3 53 5.0 SSE 30 41 16 22 1013.6 1013.6 0.0
30/02:00pm 17.8 11.7 8.1 53 4.9 S 30 35 16 19 1014.0 1014.0 0.0
30/01:30pm 17.0 9.9 7.9 55 4.6 S 35 44 19 24 1014.3 1014.3 0.0
30/01:00pm 16.7 11.0 8.4 58 4.2 S 28 33 15 18 1014.7 1014.7 0.0
30/12:30pm 16.1 9.7 8.6 61 3.8 SSE 32 41 17 22 1015.1 1015.1 0.0
30/12:00pm 16.1 11.1 8.1 59 4.0 SSE 24 37 13 20 1015.3 1015.3 0.0
30/11:30am 16.2 11.1 7.7 57 4.3 SE 24 32 13 17 1015.5 1015.5 0.0

Other Formats:

Comma delimited format used in spreadsheet applications
http://www.bom.gov.au/fwo/IDT60801/IDT60801.95964.axf

JavaScript Object Notation format (JSON) in row-major order
http://www.bom.gov.au/fwo/IDT60801/IDT60801.95964.json